Main page
METAR-TAF:

METAR-TAF

Airports :

Edwards County Airport

Rocksprings, Texas, United States

latitude: 29-56-48N, longitude: 100-10-25W, elevation: 2371 ft

Current weather observation

The report was made 8 minutes ago, at 21:55 UTC
Wind 7 mph from the South
Temperature 79°F
Humidity 39%
Pressure 29.85 in. Hg
Visibility: 10 miles

METAR: KECU 172155Z AUTO 18006KT 10SM 26/11 A2985 RMK AO2

Time: 16:03 (22:03 UTC)


TAF: missing

Weather observations and forecasts of more than 4000 airports (METAR and TAF reports).

The available stations are represented by yellow and red dots on the map.

Hover mouse over dot to see the name of the station.

Then click to see weather observations and forecasts.

To change the map : click on the green buttons with a black cross to zoom in, on the green button with a dash to zoom out, or on the green arrows for adjacent maps.


METAR-TAF: